This is the latest recevied weather packets stored in our database for station/object IW2HNF-3. If no packets are shown the sender has not sent any weather packets the latest 10 day(s).
| Time | Temp. | Humidity | Pressure | Rain* | Wind** | Luminosity | Snow |
|---|---|---|---|---|---|---|---|
| 1788684070 | 27.78° C | 51% | 1022.3 hPa | 0 mm | - | - | - |
| 1788683446 | 27.22° C | 52% | 1022.3 hPa | 0 mm | - | - | - |
| 1788679846 | 25° C | 57% | 1021.8 hPa | 0 mm | - | - | - |
| 1788679270 | 24.44° C | 59% | 1021.8 hPa | 0 mm | - | - | - |
| 1788678646 | 24.44° C | 59% | 1021.7 hPa | 0 mm | - | - | - |
| 1788678070 | 23.89° C | 59% | 1021.6 hPa | 0 mm | - | - | - |
| 1788676245 | 23.33° C | 60% | 1021.4 hPa | 0 mm | - | - | - |
| 1788674758 | 22.78° C | 61% | 1021.1 hPa | 0 mm | - | - | - |
| 1788673270 | 22.78° C | 60% | 1020.7 hPa | 0 mm | - | - | - |
| 1788672645 | 22.78° C | 59% | 1020.6 hPa | 0 mm | - | - | - |
| 1788672070 | 22.78° C | 58% | 1020.5 hPa | 0 mm | - | - | - |
| 1788671446 | 22.78° C | 58% | 1020.4 hPa | 0 mm | - | - | - |
| 1788670870 | 22.78° C | 58% | 1020.4 hPa | 0 mm | - | - | - |
| 1788670246 | 23.33° C | 58% | 1020.2 hPa | 0 mm | - | - | - |
| 1788669670 | 23.33° C | 57% | 1020.2 hPa | 0 mm | - | - | - |
| 1788669047 | 23.33° C | 56% | 1020 hPa | 0 mm | - | - | - |
| 1788668470 | 23.33° C | 56% | 1020 hPa | 0 mm | - | - | - |
| 1788667846 | 23.33° C | 56% | 1019.9 hPa | 0 mm | - | - | - |
| 1788667654 | 23.89° C | 55% | 1019.9 hPa | 0 mm | - | - | - |
| 1788666646 | 23.89° C | 55% | 1019.9 hPa | 0 mm | - | - | - |
| 1788666070 | 23.89° C | 55% | 1019.8 hPa | 0 mm | - | - | - |
| 1788665446 | 23.89° C | 56% | 1019.8 hPa | 0 mm | - | - | - |
| 1788664246 | 24.44° C | 57% | 1019.6 hPa | 0 mm | - | - | - |
| 1788663670 | 25° C | 58% | 1019.5 hPa | 0 mm | - | - | - |
| 1788663046 | 25° C | 61% | 1019.5 hPa | 0 mm | - | - | - |
* Rain latest hour (hover to see other rain measurements)
** Current wind speed in m/s (hover to see current wind gust speed)